Terminal Aerodrome Forecast
Issued by NWS

Current Version | Previous Version | Graphics & Text | Print | Product List | Glossary On
Versions: 1 2 3 4 5 6 7 8 9 10 11 12 13 14 15 16 17 18 19 20 21 22 23 24 25 26 27 28 29 30 31 32 33 34
000
FTUS41 KRNK 221041 AAA
TAFLWB
TAF AMD
KLWB 221041Z 2211/2306 00000KT 6SM -SHRA SCT015 BKN025 OVC100
      TEMPO 2211/2214 4SM SHRA BKN015
     FM221500 28006KT P6SM SCT025 BKN120 OVC250
     FM221900 27004KT 5SM SHRA VCTS BKN040CB OVC090
     FM230100 VRB03KT 3SM BR SCT005 BKN100=

USA.gov is the U.S. government's official web portal to all federal, state and local government web resources and services.